Latest Weather Observations for Beaudesert AWS

IDQ60801

Issued at 10:02 am EST Monday 11 December 2017 (issued every 30 minutes, with the page automatically refreshed every 10 minutes)

About weather observations | Map of weather stations | Latest weather observations for QLD | Other Formats
Station Details ID: 040983 Name: BEAUDESERT DRUMLEY STREET Lat: -27.97 Lon: 152.99 Height: 47.81 m
Data from the previous 72 hours. | See also: Recent months at Beaudesert AWS
Date/Time
EST
Temp
°C
App
Temp
°C
Dew
Point
°C
Rel
Hum
%
Delta-T
°C
Wind Press
QNH
hPa
Press
MSL
hPa
Rain since
9am
mm
Dir  Spd
km/h
Gust
km/h
Spd
kts
Gust
kts
11/10:00am 25.9 27.4 16.7 57 5.7 SSW 4 11 2 6 1017.9 1017.7 0.0
11/09:30am 25.9 26.8 16.2 55 6.0 S 6 13 3 7 1018.0 1017.8 0.0
11/09:00am 25.3 26.6 17.0 60 5.1 SW 6 7 3 4 1018.3 1018.1 0.0
11/08:30am 24.9 26.1 16.9 61 5.0 ESE 6 11 3 6 1018.4 1018.2 0.0
11/08:00am 24.3 24.9 16.8 63 4.6 S 9 15 5 8 1018.4 1018.2 0.0
11/07:30am 23.2 23.7 16.5 66 4.1 S 9 15 5 8 1018.5 1018.3 0.0
11/07:00am 22.1 23.6 17.5 75 2.8 SW 6 9 3 5 1018.3 1018.1 0.0
11/06:30am 20.7 22.9 16.5 77 2.5 CALM 0 4 0 2 1018.1 1017.9 0.0
11/06:00am 19.0 21.7 17.8 93 0.7 CALM 0 0 0 0 1018.0 1017.8 0.0
11/05:30am 16.5 18.5 16.0 97 0.3 CALM 0 0 0 0 1017.7 1017.5 0.0
11/05:00am 15.2 16.3 14.6 96 0.3 NE 2 4 1 2 1017.5 1017.3 0.0
11/04:30am 15.0 16.4 14.4 96 0.3 CALM 0 2 0 1 1017.3 1017.1 0.0
11/04:00am 15.0 16.3 14.2 95 0.5 CALM 0 0 0 0 1017.3 1017.1 0.0
11/03:30am 15.5 17.0 14.7 95 0.5 CALM 0 0 0 0 1017.2 1017.0 0.0
11/03:00am 15.4 16.8 14.4 94 0.6 CALM 0 0 0 0 1017.3 1017.1 0.0
11/02:30am 15.3 16.6 14.0 92 0.7 CALM 0 0 0 0 1017.4 1017.2 0.0
11/02:00am 15.9 17.4 14.6 92 0.7 CALM 0 0 0 0 1017.6 1017.4 0.0
11/01:30am 16.5 17.4 15.2 92 0.8 NNE 4 6 2 3 1018.0 1017.8 0.0
11/01:00am 16.3 17.5 14.8 91 0.9 N 2 4 1 2 1018.4 1018.2 0.0
11/12:30am 16.5 18.0 14.7 89 1.0 CALM 0 6 0 3 1018.7 1018.5 0.0
11/12:00am 17.7 18.9 15.0 84 1.6 NE 2 4 1 2 1019.0 1018.8 0.0
 
Date/Time
EST
Temp
°C
App
Temp
°C
Dew
Point
°C
Rel
Hum
%
Delta-T
°C
Wind Press
QNH
hPa
Press
MSL
hPa
Rain since
9am
mm
Dir  Spd
km/h
Gust
km/h
Spd
kts
Gust
kts
10/11:30pm 18.3 19.5 15.9 86 1.4 SE 4 6 2 3 1019.2 1019.0 0.0
10/11:00pm 18.4 20.4 16.0 86 1.4 CALM 0 2 0 1 1019.6 1019.4 0.0
10/10:30pm 17.5 19.2 15.1 86 1.4 CALM 0 0 0 0 1019.7 1019.5 0.0
10/10:00pm 18.4 20.2 15.6 84 1.6 CALM 0 0 0 0 1019.8 1019.6 0.0
10/09:30pm 19.1 20.9 15.6 80 2.1 CALM 0 0 0 0 1019.8 1019.6 0.0
10/09:00pm 19.7 21.5 15.4 76 2.5 CALM 0 0 0 0 1019.8 1019.6 0.0
10/08:30pm 20.4 21.6 15.0 71 3.2 ESE 2 4 1 2 1019.5 1019.3 0.0
10/08:00pm 22.2 22.7 15.5 66 4.0 ESE 7 9 4 5 1019.2 1019.0 0.0
10/07:30pm 22.7 22.0 15.3 63 4.4 SE 13 20 7 11 1018.9 1018.7 0.0
10/07:00pm 23.0 22.6 15.3 62 4.6 ESE 11 17 6 9 1018.6 1018.4 0.0
10/06:30pm 24.0 23.8 15.8 60 5.0 SE 11 17 6 9 1018.2 1018.0 0.0
10/06:00pm 24.7 24.1 15.6 57 5.5 ESE 13 22 7 12 1017.9 1017.7 0.0
10/05:30pm 25.0 23.4 15.9 57 5.5 SE 19 28 10 15 1017.5 1017.3 0.0
10/05:00pm 26.6 25.2 15.6 50 6.7 SE 17 26 9 14 1016.9 1016.7 0.0
10/04:30pm 27.1 26.0 16.4 52 6.6 ESE 17 26 9 14 1016.7 1016.5 0.0
10/04:00pm 27.3 25.9 16.6 52 6.6 ESE 19 30 10 16 1016.5 1016.3 0.0
10/03:30pm 27.6 26.6 14.6 45 7.8 ESE 13 24 7 13 1016.4 1016.2 0.0
10/03:00pm 28.8 28.6 16.7 48 7.6 E 13 24 7 13 1016.5 1016.3 0.0
10/02:30pm 27.7 27.4 17.3 53 6.5 ESE 15 24 8 13 1016.8 1016.6 0.0
10/02:00pm 28.0 28.8 16.3 49 7.2 ESE 7 13 4 7 1016.8 1016.6 0.0
10/01:30pm 27.7 28.0 16.9 51 6.8 S 11 22 6 12 1017.0 1016.8 0.0
10/01:00pm 28.0 29.1 17.2 52 6.8 SSE 7 17 4 9 1017.2 1017.0 0.0
10/12:30pm 28.8 28.7 16.0 45 7.9 ESE 11 19 6 10 1017.5 1017.3 0.0
10/12:00pm 27.7 28.1 16.3 49 7.1 NNE 9 15 5 8 1017.9 1017.7 0.0
10/11:30am 27.2 27.9 16.2 51 6.8 N 7 15 4 8 1018.4 1018.2 0.0
10/11:00am 26.4 26.3 16.9 56 5.9 WSW 13 20 7 11 1018.7 1018.5 0.0
10/10:30am 26.1 26.1 18.2 61 5.0 SW 15 20 8 11 1019.0 1018.8 0.0
10/10:00am 26.0 25.7 18.2 62 4.9 SW 17 26 9 14 1019.0 1018.8 0.0
10/09:30am 24.3 23.4 16.8 63 4.6 SSW 17 28 9 15 1019.1 1018.9 0.0
10/09:00am 24.6 24.5 17.8 66 4.3 SW 15 22 8 12 1019.3 1019.1 18.6
10/08:30am 24.0 23.4 17.5 67 4.0 SSW 17 24 9 13 1019.1 1018.9 18.6
10/08:00am 23.5 23.3 17.5 69 3.7 SW 15 22 8 12 1019.0 1018.8 18.6
10/07:30am 22.8 22.5 17.3 71 3.4 SSW 15 20 8 11 1018.9 1018.7 18.6
10/07:00am 22.2 23.4 17.3 74 3.0 N 7 15 4 8 1018.9 1018.7 18.6
10/06:30am 21.0 23.2 17.4 80 2.2 ESE 2 4 1 2 1018.8 1018.6 18.6
10/06:00am 19.3 21.6 17.6 90 1.0 N 2 2 1 1 1018.5 1018.3 18.6
10/05:30am 18.3 20.3 17.8 97 0.3 N 4 4 2 2 1018.3 1018.1 18.6
10/05:00am 16.9 18.4 16.6 98 0.2 NNE 4 7 2 4 1018.1 1017.9 18.6
10/04:30am 16.4 18.1 16.1 98 0.2 NNE 2 6 1 3 1017.9 1017.7 18.6
10/04:00am 17.0 19.3 16.7 98 0.2 CALM 0 0 0 0 1017.5 1017.3 18.6
10/03:30am 16.9 19.1 16.6 98 0.2 CALM 0 2 0 1 1017.5 1017.3 18.4
10/03:00am 16.8 18.9 16.3 97 0.3 CALM 0 0 0 0 1017.5 1017.3 18.4
10/02:30am 17.3 19.3 17.0 98 0.2 N 2 4 1 2 1017.6 1017.4 18.4
10/02:00am 17.3 19.3 17.0 98 0.2 NNE 2 4 1 2 1017.7 1017.5 18.4
10/01:30am 16.6 18.6 16.1 97 0.3 CALM 0 0 0 0 1017.8 1017.6 18.4
10/01:00am 17.0 19.2 16.5 97 0.3 CALM 0 0 0 0 1017.8 1017.6 18.4
10/12:30am 17.1 19.3 16.6 97 0.3 CALM 0 0 0 0 1017.8 1017.6 18.4
10/12:00am 17.5 20.0 17.2 98 0.2 CALM 0 0 0 0 1018.0 1017.8 18.4
 
Date/Time
EST
Temp
°C
App
Temp
°C
Dew
Point
°C
Rel
Hum
%
Delta-T
°C
Wind Press
QNH
hPa
Press
MSL
hPa
Rain since
9am
mm
Dir  Spd
km/h
Gust
km/h
Spd
kts
Gust
kts
09/11:30pm 17.6 19.7 17.3 98 0.2 N 2 6 1 3 1018.1 1017.9 18.4
09/11:00pm 17.3 19.6 16.8 97 0.3 CALM 0 0 0 0 1018.2 1018.0 18.4
09/10:30pm 18.2 20.6 17.9 98 0.2 N 2 2 1 1 1018.4 1018.2 18.4
09/10:00pm 18.1 20.7 17.6 97 0.3 CALM 0 0 0 0 1018.4 1018.2 18.4
09/09:30pm 18.3 21.0 17.7 96 0.4 CALM 0 0 0 0 1018.4 1018.2 18.4
09/09:00pm 18.8 21.7 18.3 97 0.3 CALM 0 2 0 1 1018.4 1018.2 18.4
09/08:30pm 18.7 21.6 18.2 97 0.3 CALM 0 0 0 0 1018.0 1017.8 18.4
09/08:00pm 18.5 20.6 18.0 97 0.3 N 4 7 2 4 1017.6 1017.4 18.4
09/07:30pm 18.4 20.8 17.9 97 0.3 N 2 6 1 3 1016.8 1016.6 18.4
09/07:00pm 18.3 21.0 17.8 97 0.3 CALM 0 0 0 0 1016.8 1016.6 18.4
09/06:30pm 18.0 19.5 17.5 97 0.3 N 6 9 3 5 1016.7 1016.5 18.4
09/06:00pm 17.9 19.3 17.4 97 0.3 N 6 9 3 5 1016.9 1016.7 18.4
09/05:30pm 17.5 18.6 17.0 97 0.3 N 7 11 4 6 1016.5 1016.3 18.4
09/05:00pm 17.6 18.2 16.8 95 0.5 SW 9 19 5 10 1015.8 1015.6 18.0
09/04:30pm 17.3 16.3 16.5 95 0.5 N 17 28 9 15 1015.5 1015.3 16.6
09/04:00pm 16.8 13.7 15.7 93 0.6 NE 26 37 14 20 1014.4 1014.2 1.2
09/03:38pm 16.7 11.1 13.4 81 1.9 SE 35 69 19 37 1015.0 1014.8 0.6
09/03:37pm 17.0 11.4 13.3 79 2.1 SE 35 69 19 37 1015.1 1014.9 0.4
09/03:34pm 17.9 12.4 12.4 70 3.1 SE 33 69 18 37 1015.8 1015.6 0.0
09/03:31pm 23.0 20.0 13.8 56 5.4 ESE 22 61 12 33 1015.6 1015.4 0.0
09/03:30pm 23.7 21.0 13.6 53 5.9 ESE 20 46 11 25 1015.3 1015.1 0.0
09/03:27pm 26.3 25.6 17.4 58 5.6 E 17 35 9 19 1014.9 1014.7 0.0
09/03:00pm 28.3 27.8 18.7 56 6.2 NE 19 30 10 16 1012.9 1012.7 0.0
09/02:30pm 29.2 29.4 18.6 52 6.8 NE 15 22 8 12 1013.2 1013.0 0.0
09/02:00pm 29.6 30.0 19.0 53 6.9 NNE 15 24 8 13 1012.7 1012.5 0.0
09/01:30pm 29.9 30.6 18.0 48 7.6 NNE 11 20 6 11 1013.1 1012.9 0.0
09/01:00pm 29.8 30.7 19.2 53 6.9 NNE 13 24 7 13 1013.6 1013.4 0.0
09/12:30pm 29.5 30.5 19.5 55 6.5 NNE 13 24 7 13 1013.7 1013.5 0.0
09/12:00pm 29.5 31.5 19.2 54 6.7 ENE 7 20 4 11 1013.9 1013.7 0.0
09/11:30am 30.4 31.4 16.4 43 8.8 NNE 6 13 3 7 1014.1 1013.9 0.0
09/11:00am 29.7 30.1 15.4 42 8.8 E 7 13 4 7 1014.4 1014.2 0.0
09/10:30am 29.3 30.4 16.5 46 8.0 N 6 11 3 6 1014.6 1014.4 0.0
09/10:00am 28.6 29.9 17.2 50 7.2 NNW 6 9 3 5 1014.8 1014.6 0.0
09/09:30am 27.5 29.2 17.1 53 6.5 NW 4 9 2 5 1015.0 1014.8 0.0
09/09:00am 26.1 27.4 17.2 58 5.6 WNW 6 9 3 5 1015.2 1015.0 7.8
09/08:30am 25.4 27.0 16.8 59 5.3 WNW 4 9 2 5 1015.4 1015.2 7.8
09/08:00am 24.5 26.8 17.7 66 4.3 SW 2 4 1 2 1015.4 1015.2 7.8
09/07:30am 22.7 24.5 16.5 68 3.8 NW 2 6 1 3 1015.4 1015.2 7.8
09/07:00am 21.7 23.1 16.4 72 3.2 NNW 4 6 2 3 1015.2 1015.0 7.8
09/06:30am 20.4 22.0 17.0 81 2.1 N 4 7 2 4 1014.7 1014.5 7.8
09/06:00am 19.5 21.6 16.3 82 1.9 CALM 0 0 0 0 1014.2 1014.0 7.8
09/05:30am 18.1 20.5 17.0 93 0.7 CALM 0 0 0 0 1013.7 1013.5 7.8
09/05:00am 17.6 19.9 16.8 95 0.5 CALM 0 2 0 1 1013.3 1013.1 7.8
09/04:30am 17.4 19.3 16.6 95 0.5 NNE 2 4 1 2 1013.2 1013.0 7.8
09/04:00am 17.3 19.1 16.5 95 0.5 SSW 2 4 1 2 1013.1 1012.9 7.8
09/03:30am 17.4 19.6 16.4 94 0.6 CALM 0 2 0 1 1013.2 1013.0 7.8
09/03:00am 17.3 18.1 16.3 94 0.6 SSW 7 9 4 5 1013.3 1013.1 7.8
09/02:30am 18.2 19.7 17.6 96 0.4 SSE 6 9 3 5 1012.9 1012.7 7.8
09/02:00am 18.1 20.6 17.3 95 0.5 CALM 0 0 0 0 1012.8 1012.6 7.8
09/01:30am 18.5 21.2 17.7 95 0.5 CALM 0 0 0 0 1013.3 1013.1 7.8
09/01:00am 18.4 21.0 17.4 94 0.6 CALM 0 0 0 0 1013.1 1012.9 7.8
09/12:30am 18.8 21.4 17.6 93 0.7 CALM 0 0 0 0 1012.9 1012.7 7.8
09/12:00am 19.1 21.5 17.9 93 0.7 SE 2 4 1 2 1012.8 1012.6 7.8
 
Date/Time
EST
Temp
°C
App
Temp
°C
Dew
Point
°C
Rel
Hum
%
Delta-T
°C
Wind Press
QNH
hPa
Press
MSL
hPa
Rain since
9am
mm
Dir  Spd
km/h
Gust
km/h
Spd
kts
Gust
kts
08/11:30pm 18.7 21.3 17.4 92 0.8 CALM 0 0 0 0 1013.1 1012.9 7.8
08/11:00pm 19.5 22.2 17.8 90 1.0 CALM 0 0 0 0 1013.3 1013.1 7.8
08/10:30pm 19.8 22.5 17.8 88 1.2 CALM 0 0 0 0 1013.2 1013.0 7.8
08/10:00pm 20.0 22.5 17.2 84 1.7 CALM 0 0 0 0 1013.3 1013.1 7.8
08/09:30pm 20.6 23.0 17.0 80 2.2 CALM 0 4 0 2 1012.8 1012.6 7.8
08/09:00pm 21.4 23.3 17.6 79 2.3 NW 4 9 2 5 1012.8 1012.6 7.8
08/08:30pm 20.5 22.7 18.3 87 1.4 ENE 4 7 2 4 1012.7 1012.5 7.8
08/08:00pm 20.6 22.8 18.4 87 1.4 NE 4 4 2 2 1012.6 1012.4 7.8
08/07:30pm 20.9 23.8 18.1 84 1.7 CALM 0 4 0 2 1012.3 1012.1 7.8
08/07:00pm 21.3 23.7 18.7 85 1.6 N 4 7 2 4 1011.9 1011.7 7.8
08/06:30pm 21.5 23.7 19.1 86 1.5 N 6 7 3 4 1011.8 1011.6 7.8
08/06:00pm 21.5 24.8 19.1 86 1.5 CALM 0 0 0 0 1012.2 1012.0 7.8
08/05:30pm 21.5 23.5 19.2 87 1.5 SSW 7 9 4 5 1012.2 1012.0 7.8
08/05:27pm 21.5 23.5 19.1 86 1.5 SW 7 9 4 5 1012.3 1012.1 7.8
08/05:00pm 21.6 23.3 19.3 87 1.5 N 9 17 5 9 1010.3 1010.0 7.8
08/04:30pm 21.9 24.6 19.5 86 1.5 NNE 4 11 2 6 1011.2 1011.0 7.8
08/04:00pm 21.6 24.0 19.7 89 1.2 W 6 11 3 6 1011.6 1011.4 7.8
08/03:30pm 21.4 24.1 19.5 89 1.2 SSW 4 6 2 3 1011.3 1011.1 7.8
08/03:00pm 21.2 23.3 19.3 89 1.2 WSW 7 13 4 7 1011.8 1011.6 7.6
08/02:30pm 20.9 22.7 18.8 88 1.3 NNE 7 13 4 7 1011.9 1011.7 7.6
08/02:00pm 20.8 22.5 19.3 91 1.0 NE 9 13 5 7 1012.5 1012.3 7.6
08/01:30pm 20.7 23.0 19.5 93 0.8 NE 6 7 3 4 1013.8 1013.6 7.4
08/01:00pm 20.4 23.4 19.2 93 0.8 NNW 2 6 1 3 1014.8 1014.6 6.8
08/12:30pm 19.9 17.9 18.2 90 1.1 WSW 26 43 14 23 1014.4 1014.2 5.6
08/12:00pm 23.9 20.5 16.7 64 4.4 WNW 30 82 16 44 1013.0 1012.8 0.0
08/11:57am 27.0 26.4 16.6 53 6.5 NW 15 80 8 43 1012.2 1012.0 0.0
08/11:30am 31.1 31.8 17.0 42 8.9 NNW 9 15 5 8 1011.3 1011.1 0.0
08/11:00am 31.3 32.8 19.0 48 8.0 NNW 9 19 5 10 1011.6 1011.4 0.0
08/10:30am 30.0 32.2 19.7 54 6.8 NW 7 15 4 8 1011.7 1011.5 0.0

Other Formats:

Comma delimited format used in spreadsheet applications
http://www.bom.gov.au/fwo/IDQ60801/IDQ60801.95575.axf

JavaScript Object Notation format (JSON) in row-major order
http://www.bom.gov.au/fwo/IDQ60801/IDQ60801.95575.json